Airfield :
LOGIN :

Register | Disclaimer

   EN    FR    IT 

 










Legend :    VFR   Marginal VFR   IFR   Intensive IFR   Very Intensive IFR
Visi :
Ceiling :
>= 8 km
>= 3000ft
5 to 8 km
1000 to 3000 ft
1500m to 5 km
500 to 1000 ft
800 to 1500m
200 to 500 ft
< 800m
< 200 ft
Symbols :   Thunderstorms  Fog  Heavy snow  Heavy precipitations  Wind > 20 kt
SIGMETs :     Misc.  Thunderstorms  Icing  Turbulence  Mountain Waves  Volcanic Ashes







- Airport Elevation : 12 ft
- IATA code : BCN


LEBL - Barcelone

CURRENT METAR :
  • 240100Z 32006KT 9999 FEW025 22/15 Q1018 NOSIG

EXPIRED METARs :
  • 240030Z 31005KT CAVOK 22/15 Q1018 NOSIG
  • 240000Z 31004KT 280V340 CAVOK 22/15 Q1018 NOSIG
  • 232330Z 31005KT 9999 FEW030 22/14 Q1018 NOSIG
  • 232300Z 30006KT 9999 FEW030 22/13 Q1018 NOSIG
  • 232230Z 28005KT 9999 FEW030 22/14 Q1018 NOSIG
  • 232200Z 27005KT 240V300 9999 FEW030 22/15 Q1018 NOSIG

TAF TAF LEBL
Valid from the 24 at 00:00 until the 25 at 00:00 UTC


232300Z 2400/2424 VRB03KT 9999 FEW030 TX27/2412Z TN20/2406Z
BECMG 2407/2409 14007KT
BECMG 2418/2420 VRB03KT
No reported NOTAMs for that airfield.



MET'MAP, your aeronautical weather chart ! - Copyright ORBIFLY December 2007 - Disclaimer

ORBIFLY MET'MAP TEAM :

Programming & Development : Alexandra Zaïnal
Concept & Development : Baudouin d'Aumeries
Co-Development & Prog : Marc-Olivier Méhu
Technical & hardware support : Manuel Goepfert

Contact : metmap@orbifly.com




SOURCES & CREDITS :

   NOAA